Time;durP1;ratioP1;P1;durP2;ratioP2;P2;SDS_P1;SDS_P2;PMS_P1;PMS_P2;Temp;Humidity;BMP_temperature;BMP_pressure;BME280_temperature;BME280_humidity;BME280_pressure;Samples;Min_cycle;Max_cycle;Signal;HPM_P1;HPM_P2
2021/08/06 00:02:20;;;;;;;;;;;;;;;;;;;;;
2021/08/06 00:05:57;;;;;;;;;;;;;;;;;;;;;
2021/08/06 00:09:16;;;;;;;;;;;;;;;;;;;;;
2021/08/06 00:12:28;;;;;;;;;;;;;;;;;;;;;
2021/08/06 00:19:38;;;;;;;0.43;0.35;;;;;;;15.81;58.93;91895.06;4917871;29;20103;-95
2021/08/06 00:22:51;;;;;;;;;;;;;;;;;;;;;
2021/08/06 00:26:30;;;;;;;0.40;0.40;;;;;;;15.58;61.00;91876.25;4944624;29;20047;-96
2021/08/06 00:29:57;;;;;;;0.95;0.85;;;;;;;15.57;61.46;91885.25;4926817;29;20114;-95
2021/08/06 00:33:19;;;;;;;;;;;;;;;;;;;;;
2021/08/06 00:36:57;;;;;;;0.32;0.32;;;;;;;15.55;61.03;91895.38;4927713;28;20521;-95
2021/08/06 00:54:02;;;;;;;0.40;0.40;;;;;;;15.04;63.76;91878.31;4944923;29;20059;-94
2021/08/06 00:57:19;;;;;;;0.43;0.43;;;;;;;14.98;64.30;91896.22;4917117;29;20142;-94
2021/08/06 01:00:26;;;;;;;;;;;;;;;;;;;;;
2021/08/06 01:07:56;;;;;;;;;;;;;;;;;;;;;
2021/08/06 01:14:17;;;;;;;0.50;0.50;;;;;;;14.88;65.98;91930.88;4921417;29;20051;-95
2021/08/06 01:17:21;;;;;;;;;;;;;;;;;;;;;
2021/08/06 01:21:03;;;;;;;1.50;0.63;;;;;;;14.52;67.51;91882.22;4950869;28;20043;-95
2021/08/06 01:24:22;;;;;;;0.30;0.30;;;;;;;14.31;68.09;91872.50;4947656;29;20047;-95
2021/08/06 01:27:42;;;;;;;0.40;0.40;;;;;;;14.46;69.03;91910.66;4914251;29;20047;-96
2021/08/06 01:34:03;;;;;;;;;;;;;;;;;;;;;
2021/08/06 01:37:01;;;;;;;;;;;;;;;;;;;;;
2021/08/06 01:40:32;;;;;;;0.22;0.22;;;;;;;14.06;68.40;91860.34;4931093;29;20571;-95
2021/08/06 01:43:52;;;;;;;1.20;0.88;;;;;;;14.03;67.62;91867.03;4947846;29;20122;-94
2021/08/06 01:47:05;;;;;;;0.22;0.22;;;;;;;14.17;64.76;91861.50;4940810;29;20378;-95
2021/08/06 01:50:17;;;;;;;0.88;0.88;;;;;;;14.23;65.57;91868.09;4926430;29;20074;-94
2021/08/06 01:53:23;;;;;;;;;;;;;;;;;;;;;
2021/08/06 01:59:39;;;;;;;;;;;;;;;;;;;;;
2021/08/06 02:02:41;;;;;;;;;;;;;;;;;;;;;
2021/08/06 02:06:31;;;;;;;0.50;0.50;;;;;;;14.53;59.54;91847.69;4938689;29;20036;-96
2021/08/06 02:09:41;;;;;;;;;;;;;;;;;;;;;
2021/08/06 02:12:51;;;;;;;0.40;0.40;;;;;;;14.76;65.63;91855.22;4937691;29;20047;-95
2021/08/06 02:16:26;;;;;;;;;;;;;;;;;;;;;
2021/08/06 02:19:53;;;;;;;0.75;0.70;;;;;;;14.78;68.53;91874.13;4941067;29;20352;-94
2021/08/06 02:23:16;;;;;;;0.30;0.30;;;;;;;14.67;68.53;91857.94;4917951;29;20059;-95
2021/08/06 02:26:04;;;;;;;;;;;;;;;;;;;;;
2021/08/06 02:29:04;;;;;;;0.60;0.60;;;;;;;14.47;69.96;91853.47;4924499;29;20127;-95
2021/08/06 02:32:00;;;;;;;0.32;0.32;;;;;;;14.41;69.94;91850.28;4899753;29;20145;-96
2021/08/06 02:35:13;;;;;;;0.63;0.63;;;;;;;14.42;70.46;91864.97;4920511;29;20036;-95
2021/08/06 02:38:20;;;;;;;;;;;;;;;;;;;;;
2021/08/06 02:41:25;;;;;;;;;;;;;;;;;;;;;
2021/08/06 02:44:54;;;;;;;;;;;;;;;;;;;;;
2021/08/06 02:51:12;;;;;;;;;;;;;;;;;;;;;
2021/08/06 02:54:26;;;;;;;;;;;;;;;;;;;;;
2021/08/06 03:04:21;;;;;;;;;;;;;;;;;;;;;
2021/08/06 03:07:26;;;;;;;0.30;0.30;;;;;;;13.76;70.23;91836.75;4918351;29;20055;-96
2021/08/06 03:10:34;;;;;;;;;;;;;;;;;;;;;
2021/08/06 03:14:05;;;;;;;0.80;0.63;;;;;;;13.93;70.92;91888.47;4937885;29;20044;-96
2021/08/06 03:17:05;;;;;;;0.57;0.57;;;;;;;13.49;70.56;91836.16;4921012;29;20043;-95
2021/08/06 03:20:25;;;;;;;0.35;0.35;;;;;;;13.79;70.75;91880.81;4897272;29;20154;-95
2021/08/06 03:23:44;;;;;;;0.55;0.55;;;;;;;13.65;70.81;91877.66;4916909;29;20055;-96
2021/08/06 03:26:50;;;;;;;;;;;;;;;;;;;;;
2021/08/06 03:40:02;;;;;;;;;;;;;;;;;;;;;
2021/08/06 03:43:02;;;;;;;;;;;;;;;;;;;;;
2021/08/06 03:46:04;;;;;;;0.38;0.38;;;;;;;13.07;72.48;91870.19;4956719;29;20050;-95
2021/08/06 03:49:43;;;;;;;0.40;0.40;;;;;;;13.06;72.54;91868.66;4933933;29;20066;-95
2021/08/06 03:53:04;;;;;;;0.30;0.30;;;;;;;12.95;72.55;91851.72;4957080;29;20046;-96
2021/08/06 03:56:17;;;;;;;0.40;0.40;;;;;;;13.08;73.26;91878.84;4939326;29;20035;-96
2021/08/06 03:59:31;;;;;;;0.43;0.43;;;;;;;13.23;73.38;91904.59;4927628;29;20040;-95
2021/08/06 04:02:49;;;;;;;;;;;;;;;;;;;;;
2021/08/06 04:11:59;;;;;;;0.70;0.70;;;;;;;12.90;74.60;91870.25;4886283;29;20221;-94
2021/08/06 04:18:54;;;;;;;0.68;0.68;;;;;;;13.25;75.11;91928.72;4870646;29;20047;-96
2021/08/06 04:22:17;;;;;;;;;;;;;;;;;;;;;
2021/08/06 04:31:37;;;;;;;0.75;0.57;;;;;;;12.94;75.40;91886.94;4874657;29;20108;-92
2021/08/06 04:35:20;;;;;;;;;;;;;;;;;;;;;
2021/08/06 04:38:38;;;;;;;;;;;;;;;;;;;;;
2021/08/06 04:45:47;;;;;;;;;;;;;;;13.50;75.12;91950.75;4882123;29;20444;-95
2021/08/06 04:52:56;;;;;;;;;;;;;;;;;;;;;
2021/08/06 04:55:25;;;;;;;0.50;0.50;;;;;;;13.67;75.45;91943.88;4957735;23;20047;-83
2021/08/06 04:57:51;;;;;;;0.45;0.45;;;;;;;13.74;75.55;91950.16;4909979;29;20056;-81
2021/08/06 05:00:19;;;;;;;0.50;0.50;;;;;;;13.79;75.56;91951.84;4919654;29;20031;-84
2021/08/06 05:02:46;;;;;;;0.60;0.60;;;;;;;13.84;75.89;91945.63;4935494;29;20035;-79
2021/08/06 05:05:13;;;;;;;0.30;0.30;;;;;;;13.88;75.56;91949.94;4920442;29;20413;-78
2021/08/06 05:07:39;;;;;;;1.08;0.73;;;;;;;13.98;74.75;91948.00;4926594;29;20036;-82
2021/08/06 05:10:07;;;;;;;0.30;0.30;;;;;;;13.99;74.30;91945.06;4933648;29;20397;-81
2021/08/06 05:12:33;;;;;;;0.90;0.65;;;;;;;14.10;74.54;91956.00;4916974;29;20031;-82
2021/08/06 05:14:59;;;;;;;0.65;0.60;;;;;;;14.14;74.75;91960.28;4923706;29;20601;-80
2021/08/06 05:17:25;;;;;;;0.52;0.52;;;;;;;14.22;74.77;91952.66;4923423;29;20494;-82
2021/08/06 05:19:51;;;;;;;0.52;0.38;;;;;;;14.31;74.44;91951.50;4934236;29;20035;-81
2021/08/06 05:22:17;;;;;;;0.50;0.50;;;;;;;14.41;74.04;91954.81;4932256;29;20501;-83
2021/08/06 05:24:44;;;;;;;0.52;0.52;;;;;;;14.51;73.42;91960.47;4919387;29;20117;-82
2021/08/06 05:27:10;;;;;;;0.50;0.50;;;;;;;14.57;73.19;91953.19;4929920;29;20072;-80
2021/08/06 05:29:35;;;;;;;0.43;0.43;;;;;;;14.63;72.81;91946.59;4922892;29;20067;-78
2021/08/06 05:32:01;;;;;;;0.35;0.35;;;;;;;14.70;73.10;91946.88;4922473;29;20042;-79
2021/08/06 05:34:27;;;;;;;0.43;0.40;;;;;;;14.78;72.79;91948.66;4957066;29;20041;-77
2021/08/06 05:36:52;;;;;;;0.43;0.43;;;;;;;14.88;72.94;91951.97;4939943;29;20107;-79
2021/08/06 05:39:18;;;;;;;0.35;0.35;;;;;;;14.98;73.17;91951.56;4952134;29;20041;-79
2021/08/06 05:41:44;;;;;;;0.30;0.30;;;;;;;15.10;72.90;91958.72;4953536;28;20039;-79
2021/08/06 05:44:10;;;;;;;0.45;0.45;;;;;;;15.22;72.70;91966.69;4940687;29;20118;-79
2021/08/06 05:46:36;;;;;;;0.52;0.50;;;;;;;15.32;72.77;91963.59;4938742;29;20039;-79
2021/08/06 05:49:02;;;;;;;0.52;0.52;;;;;;;15.47;72.82;91966.69;4947092;28;20038;-79
2021/08/06 05:51:28;;;;;;;0.45;0.45;;;;;;;15.59;72.24;91958.78;4959901;28;20034;-80
2021/08/06 05:53:55;;;;;;;0.52;0.40;;;;;;;15.81;71.23;91968.19;4954836;28;20042;-79
2021/08/06 05:56:21;;;;;;;0.95;0.80;;;;;;;15.95;70.46;91970.47;4940988;29;20505;-79
2021/08/06 05:58:51;;;;;;;0.35;0.35;;;;;;;16.14;69.11;91972.53;4940385;29;20445;-79
2021/08/06 06:01:16;;;;;;;0.28;0.28;;;;;;;16.32;68.80;91973.06;4924649;29;20046;-79
2021/08/06 06:04:03;;;;;;;1.00;0.63;;;;;;;16.49;68.07;91982.59;4927018;29;20417;-79
2021/08/06 06:06:58;;;;;;;5.45;0.70;;;;;;;16.66;68.59;91982.31;4939721;29;20039;-79
2021/08/06 06:09:23;;;;;;;0.55;0.50;;;;;;;17.01;68.23;91992.34;4939876;29;20057;-80
2021/08/06 06:11:49;;;;;;;1.38;0.98;;;;;;;18.95;60.47;91992.28;4958012;28;20054;-80
2021/08/06 06:14:15;;;;;;;0.68;0.68;;;;;;;22.23;51.26;91989.09;4939764;29;20483;-80
2021/08/06 06:16:42;;;;;;;0.70;0.70;;;;;;;24.86;44.49;91990.47;4925148;29;20122;-80
2021/08/06 06:19:07;;;;;;;0.80;0.77;;;;;;;26.22;37.94;91991.69;4956687;29;20174;-80
2021/08/06 06:21:33;;;;;;;1.20;1.10;;;;;;;27.76;35.59;91998.09;4924816;29;20086;-80
2021/08/06 06:23:59;;;;;;;1.65;1.20;;;;;;;28.84;33.53;91995.25;4909053;29;20039;-80
2021/08/06 06:26:25;;;;;;;1.70;1.13;;;;;;;29.66;32.51;91994.84;4940612;29;20070;-80
2021/08/06 06:28:50;;;;;;;1.95;1.25;;;;;;;30.45;31.10;92004.66;4940287;29;20066;-79
2021/08/06 06:31:18;;;;;;;1.50;1.33;;;;;;;31.17;30.64;91997.44;4924673;29;20534;-79
2021/08/06 06:33:44;;;;;;;1.55;1.30;;;;;;;32.21;29.17;91991.78;4936958;29;20035;-80
2021/08/06 06:36:10;;;;;;;1.75;1.48;;;;;;;32.19;29.43;91996.13;4923191;29;20039;-80
2021/08/06 06:38:36;;;;;;;1.33;1.23;;;;;;;32.81;29.43;91992.97;4937304;29;20059;-79
2021/08/06 06:41:04;;;;;;;1.10;1.00;;;;;;;32.27;30.69;92000.13;4921959;29;20353;-80
2021/08/06 06:43:32;;;;;;;2.65;1.40;;;;;;;33.04;29.70;91995.28;4937458;29;20044;-80
2021/08/06 06:45:59;;;;;;;2.25;1.58;;;;;;;32.25;30.46;91984.31;4905906;29;20100;-80
2021/08/06 06:48:25;;;;;;;1.88;1.45;;;;;;;32.83;30.91;91999.50;4937544;29;20032;-80
2021/08/06 06:50:53;;;;;;;2.28;1.60;;;;;;;32.76;30.61;92000.47;4924960;29;20068;-79
2021/08/06 06:53:19;;;;;;;1.67;1.35;;;;;;;31.60;32.68;92004.38;4940402;29;20118;-80
2021/08/06 06:55:45;;;;;;;5.88;1.15;;;;;;;29.45;35.90;92002.19;4940310;29;20083;-79
2021/08/06 06:58:12;;;;;;;0.55;0.55;;;;;;;27.20;41.18;92004.56;4940257;29;20043;-80
2021/08/06 07:00:38;;;;;;;0.65;0.60;;;;;;;24.48;47.39;92008.91;4939603;29;20050;-79
2021/08/06 07:03:08;;;;;;;2.17;1.35;;;;;;;23.80;48.55;92006.97;4924980;28;20103;-79
2021/08/06 07:05:34;;;;;;;1.58;1.25;;;;;;;22.84;52.97;92010.78;4943033;29;20075;-79
2021/08/06 07:08:02;;;;;;;0.50;0.47;;;;;;;21.60;53.11;92014.06;4914941;28;20038;-79
2021/08/06 07:10:28;;;;;;;1.02;0.73;;;;;;;21.61;55.41;92012.91;4980174;28;20089;-80
2021/08/06 07:12:55;;;;;;;0.77;0.70;;;;;;;21.20;56.18;92018.16;4979255;28;20038;-77
2021/08/06 07:15:21;;;;;;;0.50;0.50;;;;;;;21.11;57.94;92015.03;4947018;28;20488;-79
2021/08/06 07:17:48;;;;;;;0.68;0.68;;;;;;;21.40;58.75;92011.56;4962523;28;20544;-79
2021/08/06 07:20:16;;;;;;;0.40;0.40;;;;;;;21.77;56.79;92015.34;4979501;28;20031;-80
2021/08/06 07:22:44;;;;;;;0.75;0.75;;;;;;;21.59;57.69;92012.50;4945947;28;20496;-80
2021/08/06 07:25:12;;;;;;;0.57;0.50;;;;;;;21.20;55.06;92012.84;4962443;28;20320;-80
2021/08/06 07:27:39;;;;;;;1.10;0.82;;;;;;;21.17;55.03;92010.91;4956943;28;20038;-79
2021/08/06 07:30:06;;;;;;;0.20;0.20;;;;;;;21.25;56.80;92012.50;4938690;29;20277;-80
2021/08/06 07:32:33;;;;;;;0.88;0.63;;;;;;;20.12;62.76;92027.34;4908250;29;20060;-79
2021/08/06 07:34:59;;;;;;;0.43;0.43;;;;;;;20.04;63.05;92020.41;4923473;29;20502;-80
2021/08/06 07:37:26;;;;;;;0.35;0.35;;;;;;;20.44;61.30;92035.03;4924094;29;20032;-79
2021/08/06 07:39:53;;;;;;;2.00;0.85;;;;;;;20.68;58.38;92027.78;4939821;29;20138;-80
2021/08/06 07:42:19;;;;;;;0.63;0.63;;;;;;;20.73;52.98;92014.19;4939075;29;20480;-80
2021/08/06 07:44:45;;;;;;;1.27;0.85;;;;;;;20.77;49.84;92020.31;4923668;29;20024;-80
2021/08/06 07:47:11;;;;;;;0.63;0.60;;;;;;;20.29;57.23;92028.75;4938782;29;20047;-80
2021/08/06 07:49:39;;;;;;;0.52;0.50;;;;;;;20.47;54.05;92033.56;4923851;29;20111;-79
2021/08/06 07:52:05;;;;;;;0.90;0.80;;;;;;;21.06;48.98;92018.00;4950190;28;20027;-80
2021/08/06 07:54:30;;;;;;;0.65;0.57;;;;;;;21.36;50.80;92013.38;4950468;29;20545;-80
2021/08/06 07:56:57;;;;;;;0.40;0.40;;;;;;;21.78;48.97;92022.22;4926923;29;20416;-79
2021/08/06 07:59:23;;;;;;;0.73;0.45;;;;;;;21.54;50.97;92018.16;4960481;29;20118;-79
2021/08/06 08:01:49;;;;;;;0.70;0.68;;;;;;;21.09;57.68;92015.38;4942093;29;20057;-80
2021/08/06 08:04:15;;;;;;;0.40;0.40;;;;;;;20.62;61.21;92015.94;4942366;29;20085;-79
2021/08/06 08:06:41;;;;;;;0.55;0.47;;;;;;;20.06;62.16;92020.81;4943103;29;20071;-79
2021/08/06 08:09:06;;;;;;;1.33;0.80;;;;;;;20.10;62.57;92018.94;4942060;29;20069;-80
2021/08/06 08:11:32;;;;;;;0.95;0.85;;;;;;;20.15;61.83;92016.00;4942603;29;20043;-79
2021/08/06 08:13:58;;;;;;;3.00;0.50;;;;;;;20.12;61.95;92022.03;4941957;29;20046;-78
2021/08/06 08:16:24;;;;;;;0.68;0.55;;;;;;;20.26;62.21;92023.38;4926416;29;20027;-80
2021/08/06 08:18:50;;;;;;;0.30;0.30;;;;;;;20.20;61.64;92014.94;4926710;29;20412;-80
2021/08/06 08:21:18;;;;;;;0.55;0.55;;;;;;;20.25;60.43;92021.84;4941937;29;20087;-79
2021/08/06 08:23:44;;;;;;;0.60;0.50;;;;;;;20.42;59.56;92013.34;4934070;29;20088;-79
2021/08/06 08:26:09;;;;;;;0.35;0.35;;;;;;;20.39;60.08;92022.03;4938592;29;20040;-78
2021/08/06 08:28:36;;;;;;;0.43;0.43;;;;;;;20.30;58.28;92021.53;4922568;29;20071;-80
2021/08/06 08:31:03;;;;;;;1.30;0.88;;;;;;;20.35;58.96;92016.69;4937806;29;20039;-80
2021/08/06 08:33:30;;;;;;;0.35;0.35;;;;;;;20.39;57.91;92022.03;4922638;29;20051;-79
2021/08/06 08:35:58;;;;;;;0.38;0.38;;;;;;;20.44;58.44;92029.69;4922147;29;20135;-80
2021/08/06 08:38:23;;;;;;;0.57;0.52;;;;;;;20.04;58.03;92032.88;4937382;29;20134;-80
2021/08/06 08:40:50;;;;;;;1.30;0.40;;;;;;;20.41;57.50;92032.31;4921156;29;20066;-80
2021/08/06 08:43:17;;;;;;;0.73;0.73;;;;;;;20.33;56.76;92026.13;4938298;29;20462;-79
2021/08/06 08:45:46;;;;;;;0.68;0.50;;;;;;;20.49;53.23;92034.72;4939652;29;20031;-80
2021/08/06 08:48:13;;;;;;;1.65;0.73;;;;;;;20.63;55.24;92034.19;4937768;29;20043;-79
2021/08/06 08:50:41;;;;;;;4.15;0.75;;;;;;;20.76;57.95;92040.03;4924622;29;20031;-80
2021/08/06 08:53:08;;;;;;;0.93;0.80;;;;;;;20.11;57.00;92041.75;4958047;29;20027;-80
2021/08/06 08:55:34;;;;;;;0.38;0.38;;;;;;;20.43;55.91;92048.69;4956186;28;20525;-80
2021/08/06 08:58:00;;;;;;;0.35;0.35;;;;;;;20.36;53.89;92047.44;4941201;29;20413;-79
2021/08/06 09:00:27;;;;;;;0.50;0.50;;;;;;;20.44;56.20;92050.97;4924800;29;20038;-79
2021/08/06 09:02:53;;;;;;;0.52;0.52;;;;;;;20.62;55.67;92039.84;4940493;29;20474;-79
2021/08/06 09:05:21;;;;;;;0.88;0.80;;;;;;;20.73;56.96;92048.75;4958024;29;20046;-79
2021/08/06 09:07:55;;;;;;;0.32;0.32;;;;;;;20.89;56.01;92043.25;4957611;29;20094;-80
2021/08/06 09:10:43;;;;;;;0.68;0.57;;;;;;;20.99;56.50;92043.41;4943518;29;20047;-78
2021/08/06 09:13:22;;;;;;;0.60;0.60;;;;;;;21.11;54.28;92050.38;4941940;29;20031;-80
2021/08/06 09:16:13;;;;;;;2.10;1.02;;;;;;;21.02;55.31;92051.78;4938837;28;20122;-79
2021/08/06 09:18:41;;;;;;;0.40;0.40;;;;;;;21.23;55.00;92046.69;4933955;29;20039;-80
2021/08/06 09:21:19;;;;;;;0.85;0.82;;;;;;;21.52;53.35;92047.81;4937693;29;20084;-79
2021/08/06 09:23:48;;;;;;;0.52;0.43;;;;;;;21.65;53.55;92047.56;4921888;29;20035;-80
2021/08/06 09:26:25;;;;;;;0.50;0.50;;;;;;;21.79;56.21;92056.47;4936522;29;20046;-80
2021/08/06 09:29:02;;;;;;;0.50;0.50;;;;;;;21.51;54.82;92046.28;4937431;29;20095;-80
2021/08/06 09:31:29;;;;;;;1.00;0.70;;;;;;;21.37;56.34;92054.88;4936540;29;20036;-80
2021/08/06 09:34:12;;;;;;;0.22;0.22;;;;;;;21.30;55.76;92038.81;4938838;29;20036;-80
2021/08/06 09:36:50;;;;;;;0.40;0.40;;;;;;;21.45;55.21;92041.66;4938673;29;20091;-80
2021/08/06 09:39:17;;;;;;;0.60;0.60;;;;;;;21.50;57.68;92046.66;4937837;29;20152;-80
2021/08/06 09:41:45;;;;;;;0.40;0.40;;;;;;;20.98;56.98;92041.88;4938580;29;20031;-80
2021/08/06 09:44:18;;;;;;;1.02;0.85;;;;;;;21.25;57.56;92052.44;4936501;29;20052;-80
2021/08/06 09:46:44;;;;;;;0.90;0.52;;;;;;;21.10;59.27;92048.09;4936980;29;20497;-79
2021/08/06 09:49:11;;;;;;;0.55;0.55;;;;;;;21.30;57.90;92054.00;4938134;29;20126;-80
2021/08/06 09:51:39;;;;;;;1.27;0.82;;;;;;;21.46;56.98;92048.50;4947944;29;20027;-79
2021/08/06 09:54:31;;;;;;;3.17;1.27;;;;;;;21.62;56.92;92057.06;4955568;29;20496;-80
2021/08/06 09:57:07;;;;;;;0.65;0.50;;;;;;;21.02;57.75;92049.88;4936286;29;20062;-79
2021/08/06 09:59:34;;;;;;;0.65;0.65;;;;;;;21.11;58.68;92049.63;4957612;29;20035;-80
2021/08/06 10:02:18;;;;;;;0.40;0.40;;;;;;;21.37;57.36;92052.22;4957282;28;20035;-79
2021/08/06 10:04:59;;;;;;;0.40;0.40;;;;;;;21.49;59.01;92058.44;4939826;29;20039;-80
2021/08/06 10:07:26;;;;;;;0.70;0.70;;;;;;;21.17;59.19;92062.25;4955908;29;20095;-78
2021/08/06 10:09:52;;;;;;;0.73;0.63;;;;;;;20.87;60.58;92053.47;4957769;29;20054;-80
2021/08/06 10:12:18;;;;;;;2.03;0.93;;;;;;;21.13;59.50;92060.66;4950107;28;20043;-79
2021/08/06 10:14:44;;;;;;;0.50;0.50;;;;;;;21.56;58.17;92061.19;4937755;29;20047;-80
2021/08/06 10:17:10;;;;;;;0.68;0.68;;;;;;;21.69;58.88;92061.69;4956341;29;20102;-80
2021/08/06 10:19:36;;;;;;;1.80;0.88;;;;;;;21.75;56.23;92050.34;4956270;29;20039;-79
2021/08/06 10:22:03;;;;;;;1.23;1.08;;;;;;;21.89;58.04;92052.38;4956443;29;20048;-79
2021/08/06 10:24:29;;;;;;;1.73;0.98;;;;;;;22.10;58.73;92059.03;4955628;29;20118;-80
2021/08/06 10:26:55;;;;;;;1.67;1.05;;;;;;;22.32;57.32;92054.69;4955410;29;20031;-80
2021/08/06 10:29:23;;;;;;;0.65;0.57;;;;;;;22.44;56.54;92057.03;4956750;29;20043;-79
2021/08/06 10:32:07;;;;;;;1.58;0.93;;;;;;;22.08;59.02;92046.06;4955298;29;20035;-79
2021/08/06 10:34:32;;;;;;;0.75;0.52;;;;;;;22.11;57.32;92058.66;4956541;29;20040;-79
2021/08/06 10:36:58;;;;;;;1.58;1.13;;;;;;;21.77;58.02;92047.31;4956780;29;20028;-78
2021/08/06 10:39:38;;;;;;;1.08;0.77;;;;;;;21.83;59.62;92057.25;4958803;28;20130;-79
2021/08/06 10:42:05;;;;;;;0.95;0.70;;;;;;;21.54;59.49;92055.44;4960083;29;20456;-79
2021/08/06 10:44:54;;;;;;;5.45;1.60;;;;;;;21.73;60.15;92052.63;4943269;29;20031;-79
2021/08/06 10:47:20;;;;;;;1.38;0.90;;;;;;;21.63;58.46;92053.25;4960465;29;20050;-80
2021/08/06 10:50:15;;;;;;;1.85;1.10;;;;;;;21.73;60.50;92049.16;4959083;29;20035;-78
2021/08/06 10:52:41;;;;;;;2.10;1.10;;;;;;;21.81;58.82;92048.09;4943751;29;20541;-79
2021/08/06 10:55:18;;;;;;;1.23;0.77;;;;;;;21.97;60.04;92048.63;4909351;29;20203;-79
2021/08/06 10:57:44;;;;;;;3.60;1.75;;;;;;;22.05;61.43;92052.13;4943062;29;20094;-79
2021/08/06 11:00:10;;;;;;;1.10;0.85;;;;;;;22.19;60.27;92041.59;4960435;29;20126;-80
2021/08/06 11:02:38;;;;;;;0.77;0.77;;;;;;;22.40;58.92;92046.38;4960400;29;20042;-79
2021/08/06 11:05:29;;;;;;;3.00;1.42;;;;;;;22.75;58.90;92050.38;4956822;28;20050;-79
2021/08/06 11:07:56;;;;;;;3.20;1.70;;;;;;;22.81;57.32;92048.16;4959795;29;20027;-80
2021/08/06 11:10:43;;;;;;;3.17;1.50;;;;;;;22.41;59.72;92047.88;4958682;28;20035;-79
2021/08/06 11:13:31;;;;;;;1.83;1.20;;;;;;;22.51;59.02;92049.06;4960142;29;20394;-79
2021/08/06 11:16:08;;;;;;;0.70;0.70;;;;;;;22.65;58.59;92046.53;4959759;29;20031;-79
2021/08/06 11:18:34;;;;;;;0.75;0.60;;;;;;;22.88;58.79;92048.19;4959556;29;20085;-80
2021/08/06 11:21:00;;;;;;;1.55;1.27;;;;;;;22.81;58.03;92053.47;4947966;29;20428;-79
2021/08/06 11:23:30;;;;;;;1.35;0.88;;;;;;;22.68;58.92;92049.59;4950633;29;20040;-80
2021/08/06 11:26:07;;;;;;;1.63;1.15;;;;;;;22.29;60.87;92050.06;4923264;29;20039;-78
2021/08/06 11:28:34;;;;;;;1.58;0.93;;;;;;;22.13;60.79;92058.28;4941177;29;20043;-80
2021/08/06 11:31:01;;;;;;;2.22;1.80;;;;;;;22.59;61.21;92058.66;4922499;29;20044;-79
2021/08/06 11:33:27;;;;;;;3.65;2.33;;;;;;;22.34;60.91;92057.75;4940307;29;20043;-79
2021/08/06 11:35:52;;;;;;;4.22;2.47;;;;;;;22.19;61.11;92046.16;4941251;29;20103;-79
2021/08/06 11:38:24;;;;;;;4.78;1.70;;;;;;;22.44;61.38;92052.47;4922987;29;20035;-80
2021/08/06 11:40:54;;;;;;;5.57;2.42;;;;;;;22.86;60.83;92047.78;4940603;29;20047;-79
2021/08/06 11:43:22;;;;;;;1.90;1.02;;;;;;;22.90;59.17;92039.78;4939674;29;20086;-80
2021/08/06 11:46:10;;;;;;;2.60;1.30;;;;;;;22.85;57.83;92043.56;4906705;29;20524;-79
2021/08/06 11:48:58;;;;;;;1.80;1.20;;;;;;;22.96;57.39;92043.63;4939494;29;20071;-79
2021/08/06 11:51:24;;;;;;;2.58;1.30;;;;;;;23.03;59.70;92046.34;4947075;29;20027;-80
2021/08/06 11:53:49;;;;;;;3.17;1.65;;;;;;;23.25;59.13;92045.31;4954525;29;20042;-79
2021/08/06 11:56:17;;;;;;;1.60;1.00;;;;;;;22.79;58.70;92039.75;4940768;29;20420;-78
2021/08/06 11:58:43;;;;;;;2.50;1.00;;;;;;;22.44;59.49;92046.38;4959663;29;20043;-79
2021/08/06 12:01:21;;;;;;;1.70;1.13;;;;;;;23.03;59.80;92041.81;4958368;28;20516;-80
2021/08/06 12:03:49;;;;;;;6.15;1.95;;;;;;;23.28;58.75;92049.13;4958743;29;20067;-79
2021/08/06 12:06:16;;;;;;;2.42;1.58;;;;;;;23.14;59.49;92044.50;4959451;29;20027;-80
2021/08/06 12:08:43;;;;;;;1.48;1.17;;;;;;;23.16;59.71;92047.56;4941613;29;20043;-80
2021/08/06 12:11:12;;;;;;;3.38;1.67;;;;;;;23.15;59.31;92047.97;4957872;28;20053;-77
2021/08/06 12:13:59;;;;;;;1.70;1.10;;;;;;;23.35;58.33;92035.03;4958357;29;20513;-80
2021/08/06 12:16:27;;;;;;;0.93;0.80;;;;;;;23.18;60.42;92042.63;4958740;29;20486;-81
2021/08/06 12:18:59;;;;;;;1.50;1.15;;;;;;;22.93;59.44;92039.81;4940542;29;20557;-80
2021/08/06 12:21:28;;;;;;;2.85;1.38;;;;;;;23.40;57.56;92043.47;4957935;28;20049;-80
2021/08/06 12:24:07;;;;;;;2.38;1.35;;;;;;;23.35;58.39;92049.19;4958420;29;20039;-80
2021/08/06 12:26:32;;;;;;;1.27;1.02;;;;;;;23.52;57.98;92046.94;4958734;29;20475;-80
2021/08/06 12:29:10;;;;;;;3.45;2.13;;;;;;;23.40;59.23;92040.03;4958339;29;20035;-81
2021/08/06 12:31:56;;;;;;;9.73;1.50;;;;;;;23.09;57.65;92042.19;4977174;28;20469;-80
2021/08/06 12:34:27;;;;;;;2.17;1.38;;;;;;;23.23;56.95;92046.84;4976783;28;20434;-80
2021/08/06 12:36:52;;;;;;;2.65;1.30;;;;;;;22.93;56.74;92045.16;4959851;28;20063;-80
2021/08/06 12:39:18;;;;;;;1.42;1.00;;;;;;;23.38;57.18;92045.00;4977922;28;20093;-81
2021/08/06 12:41:46;;;;;;;2.97;1.45;;;;;;;23.32;57.74;92046.50;4977671;28;20142;-80
2021/08/06 12:44:29;;;;;;;3.92;1.98;;;;;;;23.39;56.22;92036.59;4977592;28;20094;-80
2021/08/06 12:47:02;;;;;;;3.60;1.77;;;;;;;23.37;56.38;92044.22;4977588;28;20118;-80
2021/08/06 12:49:34;;;;;;;1.92;1.15;;;;;;;23.63;54.90;92037.03;4977189;28;20540;-80
2021/08/06 12:52:21;;;;;;;3.50;1.45;;;;;;;23.34;54.55;92036.19;4976694;28;20035;-80
2021/08/06 12:54:50;;;;;;;1.83;1.02;;;;;;;23.58;54.83;92045.44;4966190;28;20420;-80
2021/08/06 12:57:16;;;;;;;2.13;1.40;;;;;;;23.57;54.78;92038.56;4958062;29;20045;-80
2021/08/06 12:59:44;;;;;;;3.53;1.80;;;;;;;23.54;54.75;92044.66;4931070;29;20031;-81
2021/08/06 13:02:15;;;;;;;2.60;1.95;;;;;;;23.47;56.25;92040.06;4936393;29;20059;-80
2021/08/06 13:04:41;;;;;;;3.55;1.38;;;;;;;23.90;55.37;92024.91;4922040;29;20113;-81
2021/08/06 13:07:07;;;;;;;0.88;0.85;;;;;;;23.89;54.19;92034.06;4922338;29;20055;-80
2021/08/06 13:09:40;;;;;;;2.45;1.40;;;;;;;24.14;52.83;92038.69;4920972;29;20581;-80
2021/08/06 13:12:15;;;;;;;2.55;1.25;;;;;;;23.61;53.18;92034.75;4938014;29;20038;-80
2021/08/06 13:14:44;;;;;;;2.05;1.45;;;;;;;23.64;52.12;92033.22;4937772;29;20146;-80
2021/08/06 13:17:11;;;;;;;2.72;1.70;;;;;;;23.51;52.06;92035.50;4937987;29;20099;-80
2021/08/06 13:19:37;;;;;;;2.15;1.50;;;;;;;23.76;51.10;92040.16;4938717;29;20027;-78
2021/08/06 13:22:06;;;;;;;3.08;1.13;;;;;;;23.67;51.25;92043.16;4938191;29;20040;-80
2021/08/06 13:24:32;;;;;;;1.42;1.02;;;;;;;23.92;51.81;92042.47;4952231;29;20117;-80
2021/08/06 13:26:58;;;;;;;2.88;1.58;;;;;;;23.95;51.42;92036.38;4957673;29;20047;-80
2021/08/06 13:29:24;;;;;;;1.63;1.35;;;;;;;24.19;50.10;92029.50;4956406;29;20042;-80
2021/08/06 13:31:50;;;;;;;2.65;1.33;;;;;;;24.18;51.66;92038.66;4957006;29;20110;-79
2021/08/06 13:34:16;;;;;;;3.03;1.73;;;;;;;24.03;52.34;92029.88;4956048;29;20087;-78
2021/08/06 13:36:41;;;;;;;1.65;1.10;;;;;;;23.44;53.18;92033.56;4955323;29;20047;-79
2021/08/06 13:39:07;;;;;;;2.72;1.13;;;;;;;23.62;53.66;92032.84;4956954;29;20285;-80
2021/08/06 13:41:33;;;;;;;1.35;1.05;;;;;;;23.46;53.19;92033.16;4957043;29;20129;-80
2021/08/06 13:43:59;;;;;;;1.88;1.63;;;;;;;23.97;53.65;92028.72;4957597;29;20058;-79
2021/08/06 13:46:25;;;;;;;1.67;1.05;;;;;;;24.16;52.51;92035.59;4957421;29;20031;-78
2021/08/06 13:48:51;;;;;;;1.67;0.95;;;;;;;23.70;52.23;92032.47;4957375;29;20042;-79
2021/08/06 13:51:17;;;;;;;2.50;1.48;;;;;;;23.53;53.36;92033.22;4957797;29;20027;-79
2021/08/06 13:53:42;;;;;;;1.55;1.05;;;;;;;23.97;53.42;92039.44;4947927;28;20070;-80
2021/08/06 13:56:08;;;;;;;2.92;1.45;;;;;;;23.95;52.48;92036.38;4956357;29;20047;-80
2021/08/06 13:58:34;;;;;;;6.68;1.52;;;;;;;23.99;53.03;92034.47;4956797;29;20039;-80
2021/08/06 14:01:01;;;;;;;1.55;1.05;;;;;;;24.22;53.88;92024.16;4957534;28;20031;-79
2021/08/06 14:03:27;;;;;;;2.60;1.20;;;;;;;24.46;53.55;92032.56;4957359;29;20498;-80
2021/08/06 14:05:53;;;;;;;1.38;0.95;;;;;;;24.01;53.05;92034.84;4957045;29;20035;-80
2021/08/06 14:08:19;;;;;;;3.50;0.95;;;;;;;24.06;53.76;92034.47;4957478;29;20095;-80
2021/08/06 14:10:45;;;;;;;3.90;1.70;;;;;;;24.25;51.50;92033.31;4956977;28;20058;-80
2021/08/06 14:13:11;;;;;;;2.85;1.58;;;;;;;24.22;52.25;92028.75;4957239;29;20027;-80
2021/08/06 14:15:37;;;;;;;1.63;1.08;;;;;;;24.06;51.80;92029.13;4956388;29;20099;-80
2021/08/06 14:18:02;;;;;;;1.17;0.90;;;;;;;23.49;52.45;92024.44;4939636;29;20107;-80
2021/08/06 14:20:28;;;;;;;1.73;1.50;;;;;;;23.52;52.88;92028.25;4957039;28;20047;-80
2021/08/06 14:22:54;;;;;;;2.17;1.38;;;;;;;23.69;52.19;92025.63;4956563;29;20023;-79
2021/08/06 14:25:20;;;;;;;2.83;1.63;;;;;;;23.77;53.32;92026.41;4955034;29;20050;-78
2021/08/06 14:27:45;;;;;;;4.13;1.50;;;;;;;24.15;51.10;92032.19;4942303;28;20068;-80
2021/08/06 14:30:11;;;;;;;2.53;1.40;;;;;;;23.65;51.59;92029.41;4975135;28;20552;-78